Time;durP1;ratioP1;P1;durP2;ratioP2;P2;SDS_P1;SDS_P2;PMS_P1;PMS_P2;Temp;Humidity;BMP_temperature;BMP_pressure;BME280_temperature;BME280_humidity;BME280_pressure;Samples;Min_cycle;Max_cycle;Signal;HPM_P1;HPM_P2
2022/08/18 00:01:39;;;;;;;17.08;9.60;;;;;;;18.95;100.00;101255.34;5034363;28;20029;-73
2022/08/18 00:04:06;;;;;;;13.98;9.07;;;;;;;18.90;100.00;101253.44;5032902;28;20028;-73
2022/08/18 00:06:32;;;;;;;13.65;9.10;;;;;;;18.87;100.00;101259.16;5032926;28;20032;-74
2022/08/18 00:08:59;;;;;;;12.68;8.60;;;;;;;18.94;100.00;101259.81;5032884;28;20108;-74
2022/08/18 00:11:27;;;;;;;15.25;8.75;;;;;;;18.96;100.00;101261.38;5034156;28;20108;-73
2022/08/18 00:13:53;;;;;;;11.07;8.85;;;;;;;18.88;100.00;101259.94;5033965;28;20026;-73
2022/08/18 00:16:18;;;;;;;15.57;8.50;;;;;;;18.78;100.00;101257.09;5032851;28;20539;-74
2022/08/18 00:18:44;;;;;;;13.15;8.60;;;;;;;18.80;100.00;101250.59;5033981;28;20523;-73
2022/08/18 00:21:09;;;;;;;10.88;8.90;;;;;;;18.87;100.00;101246.06;5033860;28;20025;-73
2022/08/18 00:23:34;;;;;;;14.15;8.45;;;;;;;18.81;100.00;101254.81;5033787;28;20024;-73
2022/08/18 00:25:59;;;;;;;16.30;8.23;;;;;;;18.81;100.00;101246.16;5031793;28;20018;-74
2022/08/18 00:28:25;;;;;;;15.02;8.20;;;;;;;18.75;100.00;101239.22;5032591;28;20115;-74
2022/08/18 00:30:50;;;;;;;12.13;7.82;;;;;;;18.74;100.00;101225.34;5032534;28;20025;-74
2022/08/18 00:33:15;;;;;;;10.50;7.68;;;;;;;18.74;100.00;101227.19;5032485;28;20021;-74
2022/08/18 00:35:41;;;;;;;19.70;8.25;;;;;;;18.67;100.00;101229.88;5032413;28;20198;-73
2022/08/18 00:38:07;;;;;;;12.70;8.10;;;;;;;18.77;100.00;101245.03;5032380;28;20025;-73
2022/08/18 00:40:47;;;;;;;10.98;7.93;;;;;;;18.65;100.00;101242.41;5033532;28;20022;-72
2022/08/18 00:43:38;;;;;;;16.17;7.43;;;;;;;18.74;100.00;101248.91;5032297;28;20029;-73
2022/08/18 00:46:07;;;;;;;15.70;7.88;;;;;;;18.74;100.00;101245.50;5022624;28;20065;-74
2022/08/18 00:48:33;;;;;;;14.20;7.57;;;;;;;18.74;100.00;101250.75;5033521;28;20491;-73
2022/08/18 00:51:04;;;;;;;12.95;8.15;;;;;;;18.67;100.00;101243.78;5033284;28;20049;-73
2022/08/18 00:53:40;;;;;;;11.75;7.90;;;;;;;18.72;100.00;101238.63;5032131;28;20037;-73
2022/08/18 00:56:10;;;;;;;16.60;7.63;;;;;;;18.59;100.00;101236.28;5032185;28;20025;-73
2022/08/18 00:58:48;;;;;;;12.48;7.72;;;;;;;18.55;100.00;101239.56;5032183;28;20025;-73
2022/08/18 01:01:15;;;;;;;16.38;7.90;;;;;;;18.49;100.00;101244.69;5032224;28;20511;-73
2022/08/18 01:03:43;;;;;;;12.35;7.28;;;;;;;18.48;100.00;101242.31;5033304;28;20017;-73
2022/08/18 01:06:20;;;;;;;13.07;7.47;;;;;;;18.49;100.00;101255.13;5033303;28;20056;-73
2022/08/18 01:08:45;;;;;;;11.23;7.55;;;;;;;18.47;100.00;101261.63;5033261;28;20014;-73
2022/08/18 01:11:10;;;;;;;11.23;7.38;;;;;;;18.48;100.00;101261.41;5031951;28;20358;-73
2022/08/18 01:13:38;;;;;;;16.02;7.82;;;;;;;18.46;100.00;101258.22;5033169;28;20025;-74
2022/08/18 01:21:49;;;;;;;10.98;7.35;;;;;;;18.23;100.00;101268.66;5033197;28;20017;-73
2022/08/18 01:21:50;;;;;;;12.00;7.40;;;;;;;18.14;100.00;101260.34;5033401;28;20045;-73
2022/08/18 01:24:18;;;;;;;10.95;6.57;;;;;;;18.25;100.00;101264.81;5033107;28;20017;-74
2022/08/18 01:26:50;;;;;;;17.00;6.47;;;;;;;18.20;100.00;101269.13;5031854;28;20029;-73
2022/08/18 01:29:17;;;;;;;11.88;6.85;;;;;;;18.12;100.00;101272.06;5033130;28;20473;-73
2022/08/18 01:31:54;;;;;;;15.48;7.47;;;;;;;18.14;100.00;101265.59;5033051;28;20030;-74
2022/08/18 01:34:23;;;;;;;14.82;7.38;;;;;;;18.14;100.00;101272.63;5032976;28;20029;-73
2022/08/18 01:36:51;;;;;;;13.20;7.55;;;;;;;18.20;100.00;101269.13;5032936;28;20400;-73
2022/08/18 01:39:17;;;;;;;12.35;8.27;;;;;;;18.21;100.00;101273.31;5035762;28;20380;-73
2022/08/18 01:41:42;;;;;;;15.75;8.57;;;;;;;18.13;100.00;101261.38;5036937;28;20051;-74
2022/08/18 01:44:10;;;;;;;12.27;7.95;;;;;;;18.17;100.00;101266.97;5035578;28;20025;-73
2022/08/18 01:46:37;;;;;;;15.90;7.97;;;;;;;18.23;100.00;101271.28;5036898;28;20037;-73
2022/08/18 01:49:03;;;;;;;14.45;8.18;;;;;;;18.26;100.00;101278.69;5035575;28;20091;-73
2022/08/18 01:51:31;;;;;;;17.00;8.20;;;;;;;18.32;100.00;101272.53;5036640;28;20045;-73
2022/08/18 01:53:57;;;;;;;13.65;8.18;;;;;;;18.27;100.00;101275.06;5035434;28;20151;-73
2022/08/18 01:56:22;;;;;;;13.57;7.38;;;;;;;18.26;100.00;101265.59;5036683;28;20357;-72
2022/08/18 01:58:48;;;;;;;12.32;7.70;;;;;;;18.22;100.00;101261.84;5036670;28;20026;-73
2022/08/18 02:01:14;;;;;;;13.07;7.53;;;;;;;18.10;100.00;101261.03;5036664;28;20032;-73
2022/08/18 02:03:43;;;;;;;10.30;7.95;;;;;;;18.03;100.00;101255.91;5036686;28;20029;-72
2022/08/18 02:06:11;;;;;;;18.35;7.80;;;;;;;18.02;100.00;101260.34;5036417;28;20021;-72
2022/08/18 02:08:38;;;;;;;15.55;7.85;;;;;;;18.04;100.00;101260.13;5036522;28;20083;-72
2022/08/18 02:11:05;;;;;;;18.60;8.30;;;;;;;18.10;100.00;101263.66;5036491;28;20029;-72
2022/08/18 02:13:31;;;;;;;13.05;8.18;;;;;;;18.04;100.00;101273.19;5036428;28;20036;-72
2022/08/18 02:15:56;;;;;;;16.85;7.60;;;;;;;18.03;100.00;101272.38;5035061;28;20021;-74
2022/08/18 02:18:26;;;;;;;15.20;8.05;;;;;;;18.11;100.00;101273.09;5036287;28;20155;-74
2022/08/18 02:20:56;;;;;;;14.90;7.15;;;;;;;18.14;100.00;101280.50;5034991;28;20106;-73
2022/08/18 02:23:22;;;;;;;14.10;8.13;;;;;;;18.18;100.00;101281.63;5036184;28;20033;-73
2022/08/18 02:25:48;;;;;;;13.13;8.23;;;;;;;18.20;100.00;101293.47;5036040;28;20036;-73
2022/08/18 02:28:13;;;;;;;14.45;8.60;;;;;;;18.15;100.00;101290.72;5036137;28;20021;-73
2022/08/18 02:30:39;;;;;;;20.50;8.73;;;;;;;18.04;100.00;101281.84;5034824;28;20025;-73
2022/08/18 02:33:07;;;;;;;12.02;8.40;;;;;;;17.98;100.00;101279.31;5036084;28;20167;-73
2022/08/18 02:35:33;;;;;;;13.98;8.13;;;;;;;17.92;100.00;101277.59;5035968;28;20405;-74
2022/08/18 02:38:00;;;;;;;15.40;8.52;;;;;;;17.96;100.00;101283.97;5036045;28;20178;-73
2022/08/18 02:40:26;;;;;;;21.83;8.93;;;;;;;17.99;100.00;101276.47;5035876;28;20373;-73
2022/08/18 02:42:54;;;;;;;28.23;8.95;;;;;;;18.01;100.00;101273.63;5035842;28;20026;-73
2022/08/18 02:45:21;;;;;;;13.00;8.60;;;;;;;18.11;100.00;101278.31;5035779;28;20084;-73
2022/08/18 02:47:53;;;;;;;19.48;8.90;;;;;;;18.09;100.00;101280.34;5035782;28;20435;-74
2022/08/18 02:50:20;;;;;;;17.57;8.57;;;;;;;18.02;100.00;101286.50;5033641;28;20049;-74
2022/08/18 02:52:45;;;;;;;22.08;9.57;;;;;;;17.97;100.00;101286.34;5035734;28;20363;-73
2022/08/18 02:55:11;;;;;;;16.05;9.23;;;;;;;17.97;100.00;101285.56;5034309;28;20116;-73
2022/08/18 02:57:44;;;;;;;22.52;9.38;;;;;;;18.01;100.00;101291.94;5034555;28;20079;-74
2022/08/18 03:00:15;;;;;;;13.23;9.23;;;;;;;17.96;100.00;101292.63;5034400;28;20037;-73
2022/08/18 03:02:50;;;;;;;17.85;9.90;;;;;;;18.01;100.00;101290.13;5035440;28;20017;-73
2022/08/18 03:05:17;;;;;;;26.55;9.57;;;;;;;18.04;100.00;101297.53;5035401;28;20029;-73
2022/08/18 03:07:43;;;;;;;17.55;9.88;;;;;;;17.99;100.00;101292.16;5034104;28;20025;-73
2022/08/18 03:10:09;;;;;;;20.45;9.20;;;;;;;18.08;100.00;101305.72;5035446;28;20036;-72
2022/08/18 03:12:35;;;;;;;13.55;8.48;;;;;;;18.16;100.00;101307.22;5035394;28;20064;-72
2022/08/18 03:15:01;;;;;;;12.05;8.32;;;;;;;18.12;100.00;101304.25;5035280;28;20025;-72
2022/08/18 03:17:26;;;;;;;12.18;8.80;;;;;;;18.06;100.00;101299.91;5033994;28;20075;-72
2022/08/18 03:19:51;;;;;;;16.42;8.73;;;;;;;18.18;100.00;101308.59;5035214;28;20100;-72
2022/08/18 03:22:17;;;;;;;15.52;8.30;;;;;;;18.18;100.00;101307.78;5033875;28;20026;-72
2022/08/18 03:24:42;;;;;;;16.70;8.18;;;;;;;18.11;100.00;101299.25;5035048;28;20021;-71
2022/08/18 03:27:07;;;;;;;14.63;7.97;;;;;;;18.12;100.00;101300.81;5035233;28;20021;-72
2022/08/18 03:29:34;;;;;;;16.77;8.13;;;;;;;18.12;100.00;101304.25;5034973;28;20055;-72
2022/08/18 03:32:01;;;;;;;13.43;8.65;;;;;;;18.16;100.00;101310.63;5034902;28;20090;-73
2022/08/18 03:34:26;;;;;;;14.18;8.93;;;;;;;18.15;100.00;101300.38;5034928;28;20052;-73
2022/08/18 03:36:52;;;;;;;16.90;9.82;;;;;;;18.17;100.00;101306.97;5034847;28;20100;-72
2022/08/18 03:39:18;;;;;;;15.25;9.73;;;;;;;18.18;100.00;101300.75;5034838;28;20030;-73
2022/08/18 03:41:45;;;;;;;16.80;9.45;;;;;;;18.15;100.00;101306.41;5034673;28;20446;-74
2022/08/18 03:44:13;;;;;;;16.48;10.05;;;;;;;18.23;100.00;101307.91;5034860;28;20025;-74
2022/08/18 03:46:43;;;;;;;16.67;9.35;;;;;;;18.25;100.00;101311.91;5034698;28;20026;-73
2022/08/18 03:49:09;;;;;;;15.63;10.02;;;;;;;18.23;100.00;101315.75;5034527;28;20029;-73
2022/08/18 03:51:35;;;;;;;16.52;10.60;;;;;;;18.27;100.00;101319.53;5034416;28;20060;-74
2022/08/18 03:54:03;;;;;;;16.30;10.57;;;;;;;18.31;100.00;101315.44;5034507;28;20116;-73
2022/08/18 03:56:32;;;;;;;17.75;10.05;;;;;;;18.25;100.00;101316.34;5034423;28;20431;-73
2022/08/18 03:59:03;;;;;;;13.07;9.80;;;;;;;18.23;100.00;101311.31;5033166;28;20052;-73
2022/08/18 04:01:31;;;;;;;15.80;9.85;;;;;;;18.28;100.00;101315.88;5033382;28;20495;-73
2022/08/18 04:04:02;;;;;;;15.32;10.15;;;;;;;18.30;100.00;101320.88;5034314;28;20025;-74
2022/08/18 04:06:32;;;;;;;18.23;10.43;;;;;;;18.17;100.00;101314.84;5034144;28;20480;-74
2022/08/18 04:09:03;;;;;;;20.02;10.52;;;;;;;18.20;100.00;101313.59;5034183;28;20172;-73
2022/08/18 04:11:31;;;;;;;17.13;10.88;;;;;;;18.18;100.00;101318.25;5032914;28;20027;-73
2022/08/18 04:13:56;;;;;;;20.15;11.40;;;;;;;18.23;100.00;101313.94;5034103;28;20116;-74
2022/08/18 04:16:24;;;;;;;18.17;11.00;;;;;;;18.32;100.00;101313.59;5034125;28;20522;-74
2022/08/18 04:18:49;;;;;;;18.27;11.07;;;;;;;18.24;100.00;101310.31;5032740;28;20025;-74
2022/08/18 04:21:14;;;;;;;19.50;11.88;;;;;;;18.22;100.00;101301.09;5034023;28;20029;-73
2022/08/18 04:23:40;;;;;;;19.20;12.00;;;;;;;18.20;100.00;101308.34;5033855;28;20545;-73
2022/08/18 04:26:08;;;;;;;19.35;12.82;;;;;;;18.19;100.00;101304.94;5033784;28;20028;-73
2022/08/18 04:28:34;;;;;;;16.75;12.10;;;;;;;18.15;100.00;101305.59;5032775;28;20087;-73
2022/08/18 04:31:09;;;;;;;17.63;12.70;;;;;;;18.17;100.00;101306.19;5033933;28;20029;-73
2022/08/18 04:33:34;;;;;;;17.20;12.95;;;;;;;18.14;100.00;101304.81;5032565;28;20107;-74
2022/08/18 04:36:07;;;;;;;24.15;12.57;;;;;;;18.07;100.00;101308.53;5033754;28;20057;-73
2022/08/18 04:38:33;;;;;;;19.85;12.20;;;;;;;18.03;100.00;101305.59;5032422;28;20372;-73
2022/08/18 04:40:58;;;;;;;24.25;12.63;;;;;;;18.03;100.00;101303.75;5032375;28;20067;-73
2022/08/18 04:43:23;;;;;;;21.38;12.15;;;;;;;18.06;100.00;101301.72;5032400;28;20030;-73
2022/08/18 04:45:50;;;;;;;18.33;12.25;;;;;;;18.08;100.00;101294.47;5033518;28;20033;-73
2022/08/18 04:48:16;;;;;;;17.83;11.63;;;;;;;18.01;100.00;101292.75;5032323;28;20120;-73
2022/08/18 04:50:42;;;;;;;21.05;12.23;;;;;;;17.95;100.00;101300.66;5033324;28;20049;-73
2022/08/18 04:55:52;;;;;;;23.35;11.88;;;;;;;17.92;100.00;101295.88;5033426;28;20032;-72
2022/08/18 04:58:19;;;;;;;17.25;12.07;;;;;;;17.87;100.00;101307.03;5033620;28;20091;-73
2022/08/18 05:00:45;;;;;;;16.88;11.60;;;;;;;17.89;100.00;101307.59;5033429;28;20022;-73
2022/08/18 05:03:12;;;;;;;19.20;12.25;;;;;;;17.95;100.00;101306.72;5033399;28;20033;-73
2022/08/18 05:05:37;;;;;;;19.17;11.63;;;;;;;17.94;100.00;101307.72;5033193;28;20455;-73
2022/08/18 05:08:04;;;;;;;14.20;11.35;;;;;;;17.92;100.00;101316.81;5031992;28;20021;-74
2022/08/18 05:10:29;;;;;;;19.40;11.60;;;;;;;17.99;100.00;101315.69;5033189;28;20037;-73
2022/08/18 05:12:54;;;;;;;21.65;11.75;;;;;;;18.04;100.00;101322.88;5031623;28;20435;-73
2022/08/18 05:15:20;;;;;;;14.20;11.30;;;;;;;18.14;100.00;101322.34;5033154;28;20041;-73
2022/08/18 05:17:45;;;;;;;16.63;11.02;;;;;;;18.19;100.00;101323.25;5033301;28;20025;-73
2022/08/18 05:20:10;;;;;;;16.80;11.30;;;;;;;18.18;100.00;101326.09;5033134;28;20481;-73
2022/08/18 05:22:42;;;;;;;22.63;11.40;;;;;;;18.13;100.00;101331.22;5031958;28;20028;-73
2022/08/18 05:25:09;;;;;;;15.88;11.38;;;;;;;18.10;100.00;101329.03;5031755;28;20500;-73
2022/08/18 05:27:38;;;;;;;17.77;11.07;;;;;;;18.14;100.00;101324.94;5031786;28;20061;-73
2022/08/18 05:30:06;;;;;;;14.40;11.52;;;;;;;18.04;100.00;101322.88;5033195;28;20100;-73
2022/08/18 05:32:40;;;;;;;17.13;11.63;;;;;;;18.08;100.00;101318.00;5032899;28;20117;-74
2022/08/18 05:35:11;;;;;;;18.60;11.93;;;;;;;18.10;100.00;101318.59;5031722;28;20397;-73
2022/08/18 05:37:58;;;;;;;21.23;12.27;;;;;;;18.19;100.00;101320.66;5033112;28;20032;-73
2022/08/18 05:40:24;;;;;;;16.70;11.73;;;;;;;18.27;100.00;101316.91;5032942;28;20049;-73
2022/08/18 05:42:50;;;;;;;20.58;11.52;;;;;;;18.36;100.00;101312.16;5031630;28;20449;-73
2022/08/18 05:45:18;;;;;;;14.75;11.13;;;;;;;18.42;100.00;101317.28;5031634;28;20056;-73
2022/08/18 05:47:44;;;;;;;16.23;11.52;;;;;;;18.51;100.00;101319.56;5032859;28;20029;-73
2022/08/18 05:50:15;;;;;;;15.52;11.20;;;;;;;18.58;100.00;101313.19;5032719;28;20049;-73
2022/08/18 05:52:59;;;;;;;17.83;11.35;;;;;;;18.67;100.00;101319.69;5031580;28;20025;-73
2022/08/18 05:58:39;;;;;;;17.95;10.60;;;;;;;19.00;100.00;101315.72;5032974;28;20040;-75
2022/08/18 06:01:14;;;;;;;20.98;11.15;;;;;;;20.09;100.00;101328.03;5032923;28;20021;-73
2022/08/18 06:03:48;;;;;;;12.50;8.95;;;;;;;25.00;78.03;101320.84;5032702;28;20121;-74
2022/08/18 06:06:22;;;;;;;11.05;7.15;;;;;;;27.06;64.45;101318.19;5031349;28;20048;-74
2022/08/18 06:08:57;;;;;;;14.10;6.45;;;;;;;27.86;60.98;101312.06;5032601;28;20033;-73
2022/08/18 06:11:22;;;;;;;8.80;5.90;;;;;;;27.87;60.00;101317.06;5031350;28;20018;-73
2022/08/18 06:13:48;;;;;;;11.88;5.75;;;;;;;28.63;56.68;101311.53;5032810;28;20435;-73
2022/08/18 06:16:28;;;;;;;9.80;5.20;;;;;;;29.17;54.53;101306.44;5032644;28;20096;-72
2022/08/18 06:19:02;;;;;;;9.45;4.60;;;;;;;29.53;54.57;101306.44;5032514;28;20108;-73
2022/08/18 06:21:28;;;;;;;9.23;5.03;;;;;;;29.58;53.81;101306.31;5032571;28;20033;-74
2022/08/18 06:24:18;;;;;;;7.13;4.67;;;;;;;29.71;53.39;101303.94;5031331;28;20400;-76
2022/08/18 06:27:34;;;;;;;6.55;4.65;;;;;;;30.12;53.20;101295.69;5034753;28;20120;-74
2022/08/18 06:30:21;;;;;;;13.73;5.00;;;;;;;29.90;53.04;101289.31;5035964;28;20551;-75
2022/08/18 06:33:08;;;;;;;9.10;4.30;;;;;;;29.70;53.69;101302.38;5035993;28;20080;-74
2022/08/18 06:35:44;;;;;;;8.95;3.85;;;;;;;30.31;51.93;101300.81;5035935;28;20449;-73
2022/08/18 06:41:07;;;;;;;7.78;3.50;;;;;;;31.18;49.25;101309.03;5036147;28;20047;-73
2022/08/18 06:43:36;;;;;;;4.97;3.35;;;;;;;31.11;48.85;101314.06;5034534;28;20116;-73
2022/08/18 06:46:08;;;;;;;5.72;3.10;;;;;;;31.71;47.58;101305.28;5034606;28;20092;-74
2022/08/18 06:48:43;;;;;;;5.78;3.30;;;;;;;31.92;47.15;101300.84;5035733;28;20448;-74
2022/08/18 06:51:13;;;;;;;5.13;2.78;;;;;;;31.15;48.03;101310.44;5035383;28;20501;-73
2022/08/18 06:53:53;;;;;;;4.18;2.85;;;;;;;32.19;46.45;101303.41;5034343;28;20040;-73
2022/08/18 06:56:23;;;;;;;6.40;2.75;;;;;;;31.49;48.26;101316.91;5035769;28;20025;-73
2022/08/18 06:58:51;;;;;;;7.53;2.70;;;;;;;31.36;47.59;101312.50;5035602;28;20477;-73
2022/08/18 07:01:17;;;;;;;9.25;2.60;;;;;;;32.16;46.70;101310.19;5034237;28;20473;-73
2022/08/18 07:03:51;;;;;;;6.57;2.70;;;;;;;32.03;46.03;101324.56;5035473;28;20414;-73
2022/08/18 07:06:20;;;;;;;10.60;2.47;;;;;;;32.49;46.04;101315.75;5035380;28;20469;-73
2022/08/18 07:08:47;;;;;;;8.13;2.50;;;;;;;32.35;45.21;101315.16;5035416;28;20108;-73
2022/08/18 07:11:30;;;;;;;4.63;2.40;;;;;;;31.83;46.21;101312.63;5034001;28;20028;-73
2022/08/18 07:14:11;;;;;;;5.68;2.70;;;;;;;32.81;44.52;101308.94;5035322;28;20495;-73
2022/08/18 07:16:37;;;;;;;8.35;2.55;;;;;;;33.91;41.41;101314.00;5033900;28;20017;-73
2022/08/18 07:19:15;;;;;;;4.32;2.38;;;;;;;32.61;42.70;101315.06;5034992;28;20056;-73
2022/08/18 07:21:42;;;;;;;4.72;2.10;;;;;;;32.92;43.90;101325.41;5035136;28;20026;-73
2022/08/18 07:24:20;;;;;;;3.65;2.42;;;;;;;32.83;43.95;101326.56;5033795;28;20045;-73
2022/08/18 07:27:18;;;;;;;4.20;2.28;;;;;;;31.41;45.96;101334.50;5035103;28;20431;-72
2022/08/18 07:30:07;;;;;;;4.60;2.10;;;;;;;27.06;54.46;101334.13;5033636;28;20429;-72
2022/08/18 07:32:46;;;;;;;3.90;2.80;;;;;;;26.69;58.62;101330.28;5034870;28;20106;-72
2022/08/18 07:35:18;;;;;;;5.90;2.40;;;;;;;30.53;50.19;101327.41;5033321;28;20017;-72
2022/08/18 07:37:51;;;;;;;6.05;2.13;;;;;;;30.40;48.09;101332.84;5034769;28;20032;-72
2022/08/18 07:40:44;;;;;;;5.38;2.28;;;;;;;25.34;64.72;101328.91;5040110;28;20116;-73
2022/08/18 07:43:34;;;;;;;5.18;2.55;;;;;;;28.71;55.93;101340.06;5034429;28;20064;-73
2022/08/18 07:46:11;;;;;;;5.85;2.30;;;;;;;31.25;46.19;101352.88;5034520;28;20587;-72
2022/08/18 07:48:36;;;;;;;5.22;2.30;;;;;;;29.14;51.45;101352.28;5034597;28;20036;-72
2022/08/18 07:51:22;;;;;;;4.50;2.35;;;;;;;25.65;60.92;101349.91;5034126;28;20046;-72
2022/08/18 07:54:09;;;;;;;7.20;2.63;;;;;;;24.32;66.54;101350.31;5034475;28;20036;-72
2022/08/18 07:56:51;;;;;;;6.15;2.90;;;;;;;27.51;56.68;101356.63;5032113;28;20481;-72
2022/08/18 07:59:25;;;;;;;5.07;2.50;;;;;;;25.29;61.92;101347.47;5034245;28;20044;-72
2022/08/18 08:02:21;;;;;;;6.57;2.63;;;;;;;24.25;71.39;101350.56;5034402;28;20036;-72
2022/08/18 08:05:06;;;;;;;6.20;2.90;;;;;;;24.00;70.75;101348.72;5034253;28;20500;-72
2022/08/18 08:07:44;;;;;;;5.05;2.75;;;;;;;23.76;75.15;101360.81;5034305;28;20029;-72
2022/08/18 08:10:24;;;;;;;5.20;2.80;;;;;;;26.19;64.69;101358.84;5034303;28;20037;-72
2022/08/18 08:13:04;;;;;;;4.10;2.60;;;;;;;24.47;70.37;101360.09;5033288;28;20051;-73
2022/08/18 08:15:41;;;;;;;4.55;2.75;;;;;;;25.64;66.42;101358.94;5032885;28;20026;-73
2022/08/18 08:18:35;;;;;;;4.57;2.85;;;;;;;26.22;65.79;101358.28;5032894;28;20025;-73
2022/08/18 08:21:07;;;;;;;5.05;2.75;;;;;;;26.21;65.11;101348.72;5033168;28;20518;-73
2022/08/18 08:23:42;;;;;;;6.57;2.70;;;;;;;26.73;64.88;101355.19;5033293;28;20075;-73
2022/08/18 08:26:46;;;;;;;5.30;2.67;;;;;;;27.51;59.99;101350.53;5032771;28;20033;-73
2022/08/18 08:29:49;;;;;;;6.03;2.60;;;;;;;25.75;66.24;101352.50;5034038;28;20026;-72
2022/08/18 08:32:18;;;;;;;;;;;;;;;25.71;66.63;101358.63;5033346;28;20385;-73
2022/08/18 08:34:55;;;;;;;4.88;2.40;;;;;;;24.84;68.16;101361.63;5033873;28;19913;-73
2022/08/18 08:37:32;;;;;;;5.25;2.47;;;;;;;24.40;70.25;101352.41;5033873;28;20021;-73
2022/08/18 08:40:11;;;;;;;5.85;2.22;;;;;;;23.75;74.37;101349.47;5033763;28;20033;-73
2022/08/18 08:42:55;;;;;;;6.93;2.50;;;;;;;23.57;78.29;101349.94;5034323;28;20057;-73
2022/08/18 08:45:25;;;;;;;6.43;2.90;;;;;;;23.53;76.03;101341.72;5034120;28;20033;-72
2022/08/18 08:47:54;;;;;;;5.90;2.95;;;;;;;23.49;78.06;101348.59;5031864;28;20025;-72
2022/08/18 08:50:23;;;;;;;4.50;2.65;;;;;;;23.65;75.47;101341.53;5033016;28;20073;-73
2022/08/18 08:53:05;;;;;;;5.45;2.70;;;;;;;24.20;76.25;101345.31;5034514;28;20048;-72
2022/08/18 08:55:35;;;;;;;6.18;2.50;;;;;;;25.84;68.31;101348.25;5035032;28;20029;-73
2022/08/18 08:58:15;;;;;;;5.72;2.50;;;;;;;26.87;62.35;101342.78;5040069;28;20036;-75
2022/08/18 09:00:42;;;;;;;4.57;2.50;;;;;;;26.88;63.29;101348.91;5041343;28;20029;-74
2022/08/18 09:03:33;;;;;;;6.63;2.50;;;;;;;27.36;62.43;101344.38;5042027;28;20033;-79
2022/08/18 09:05:58;;;;;;;4.30;2.40;;;;;;;26.74;61.93;101351.44;5041729;28;20033;-76
2022/08/18 09:08:54;;;;;;;4.33;2.47;;;;;;;25.19;68.76;101345.66;5042169;28;20029;-80
2022/08/18 09:11:50;;;;;;;5.10;2.65;;;;;;;24.59;70.49;101352.69;5041361;28;20275;-75
2022/08/18 09:14:56;;;;;;;5.47;2.45;;;;;;;24.33;73.06;101349.25;5042856;28;20057;-76
2022/08/18 09:17:58;;;;;;;5.30;2.60;;;;;;;24.24;73.09;101364.81;5035767;28;20060;-73
2022/08/18 09:20:46;;;;;;;8.45;2.85;;;;;;;26.28;67.62;101359.81;5034308;28;20481;-72
2022/08/18 09:23:19;;;;;;;11.75;3.17;;;;;;;26.45;63.16;101364.69;5033741;28;20103;-75
2022/08/18 09:25:49;;;;;;;6.22;2.45;;;;;;;26.31;63.09;101365.34;5034707;28;20108;-73
2022/08/18 09:28:40;;;;;;;4.78;2.60;;;;;;;25.83;64.56;101365.16;5033299;28;20021;-73
2022/08/18 09:31:05;;;;;;;5.85;3.03;;;;;;;25.60;66.44;101371.91;5033453;28;20451;-72
2022/08/18 09:34:03;;;;;;;5.77;2.50;;;;;;;27.07;60.34;101367.50;5034307;28;20029;-74
2022/08/18 09:36:56;;;;;;;4.82;2.50;;;;;;;25.41;64.65;101357.75;5032341;28;20044;-72
2022/08/18 09:42:30;;;;;;;4.55;2.40;;;;;;;24.97;67.61;101366.31;5033323;28;20057;-73
2022/08/18 09:45:00;;;;;;;3.97;2.60;;;;;;;24.56;68.66;101373.56;5032126;28;20033;-71
2022/08/18 09:47:26;;;;;;;5.32;2.72;;;;;;;24.33;73.02;101368.50;5030905;28;20025;-73
2022/08/18 09:49:54;;;;;;;6.50;2.60;;;;;;;24.34;71.55;101369.34;5030877;28;20503;-73
2022/08/18 09:52:22;;;;;;;6.82;2.53;;;;;;;24.37;74.32;101373.28;5031171;28;20038;-72
2022/08/18 09:54:52;;;;;;;8.18;2.95;;;;;;;24.04;73.64;101362.19;5031639;28;20080;-73
2022/08/18 09:57:26;;;;;;;8.15;2.88;;;;;;;24.10;75.64;101358.47;5031579;28;20076;-73
2022/08/18 10:00:27;;;;;;;6.60;2.78;;;;;;;24.09;71.40;101357.69;5033173;28;20026;-74
2022/08/18 10:02:52;;;;;;;5.90;2.80;;;;;;;24.62;70.04;101359.28;5036631;28;20413;-73
2022/08/18 10:05:18;;;;;;;4.05;2.78;;;;;;;25.10;67.18;101354.41;5035200;28;20040;-72
2022/08/18 10:07:48;;;;;;;6.80;2.63;;;;;;;26.67;63.19;101354.44;5036505;28;20028;-72
2022/08/18 10:10:44;;;;;;;4.55;2.33;;;;;;;27.04;59.33;101352.16;5036527;28;20044;-73
2022/08/18 10:14:02;;;;;;;3.50;2.20;;;;;;;27.37;57.46;101345.94;5036490;28;20086;-72
2022/08/18 10:16:42;;;;;;;5.28;2.30;;;;;;;27.65;57.17;101335.47;4975412;28;20089;-73
2022/08/18 10:19:46;;;;;;;4.78;2.47;;;;;;;28.06;55.39;101329.53;4975571;28;20449;-73
2022/08/18 10:22:12;;;;;;;4.57;2.50;;;;;;;28.57;54.33;101328.66;5018747;28;20059;-73
2022/08/18 10:24:52;;;;;;;5.55;2.33;;;;;;;27.67;57.02;101336.72;5036121;28;20077;-73
2022/08/18 10:27:44;;;;;;;3.42;2.10;;;;;;;26.52;59.83;101341.34;5036285;28;20099;-72
2022/08/18 10:30:28;;;;;;;4.47;2.10;;;;;;;26.45;60.25;101338.19;5024206;28;20043;-72
2022/08/18 10:32:53;;;;;;;2.60;2.10;;;;;;;26.41;59.34;101347.75;5033158;28;20483;-72
2022/08/18 10:35:56;;;;;;;5.78;2.47;;;;;;;26.09;60.11;101344.59;5033990;28;20112;-72
2022/08/18 10:38:36;;;;;;;3.85;2.42;;;;;;;25.39;66.11;101350.06;5030326;28;20064;-73
2022/08/18 10:41:07;;;;;;;3.55;2.40;;;;;;;25.46;63.32;101346.31;5034145;28;20021;-72
2022/08/18 10:43:46;;;;;;;3.30;2.15;;;;;;;25.02;64.77;101353.09;5035905;28;20091;-72
2022/08/18 10:46:18;;;;;;;5.53;2.30;;;;;;;24.56;63.00;101341.84;5034454;28;20526;-72
2022/08/18 10:48:57;;;;;;;3.33;2.25;;;;;;;25.87;58.75;101336.31;5034096;28;20432;-72
2022/08/18 10:51:51;;;;;;;4.97;2.33;;;;;;;27.46;55.54;101340.78;5034286;28;20045;-73
2022/08/18 10:54:32;;;;;;;3.78;2.00;;;;;;;27.91;54.44;101338.53;5023330;28;20437;-73
2022/08/18 10:57:26;;;;;;;3.55;2.10;;;;;;;26.35;57.48;101333.78;5035603;28;20100;-72
2022/08/18 10:59:57;;;;;;;4.65;2.13;;;;;;;25.80;60.89;101333.94;5035580;28;20037;-72
2022/08/18 11:02:53;;;;;;;4.80;2.38;;;;;;;27.61;54.89;101345.06;5034064;28;20029;-72
2022/08/18 11:05:23;;;;;;;2.58;2.00;;;;;;;27.84;54.02;101333.59;5035334;28;20493;-72
2022/08/18 11:07:56;;;;;;;6.03;2.13;;;;;;;27.27;53.92;101354.00;5034234;28;20027;-73
2022/08/18 11:10:34;;;;;;;5.43;2.20;;;;;;;26.40;56.46;101351.50;5034893;28;20044;-73
2022/08/18 11:13:30;;;;;;;3.75;1.98;;;;;;;26.15;58.42;101341.91;5035277;28;20481;-73
2022/08/18 11:16:11;;;;;;;8.93;2.95;;;;;;;25.55;59.82;101339.38;5035325;28;20389;-73
2022/08/18 11:18:47;;;;;;;3.65;2.60;;;;;;;24.82;61.45;101339.94;5033976;28;20048;-73
2022/08/18 11:21:24;;;;;;;3.78;2.30;;;;;;;25.95;57.30;101330.44;5034392;28;20137;-73
2022/08/18 11:24:11;;;;;;;3.78;2.20;;;;;;;25.62;59.40;101324.78;5035080;28;20033;-73
2022/08/18 11:26:41;;;;;;;3.67;2.10;;;;;;;25.46;62.62;101338.38;5033742;28;20541;-73
2022/08/18 11:29:30;;;;;;;5.75;2.70;;;;;;;25.33;63.31;101331.84;5035025;28;20025;-73
2022/08/18 11:32:06;;;;;;;4.32;2.58;;;;;;;25.33;63.41;101327.34;5033982;28;20051;-73
2022/08/18 11:34:37;;;;;;;4.70;2.10;;;;;;;25.30;65.72;101327.91;5035436;28;20116;-72
2022/08/18 11:37:18;;;;;;;5.57;1.80;;;;;;;25.21;65.81;101337.47;5034777;28;20079;-72
2022/08/18 11:39:48;;;;;;;4.43;1.95;;;;;;;25.06;65.08;101338.28;5035035;28;20052;-72
2022/08/18 11:42:16;;;;;;;3.88;1.70;;;;;;;24.90;65.84;101334.91;5034724;28;20030;-73
2022/08/18 11:44:42;;;;;;;8.68;1.88;;;;;;;25.31;66.62;101323.38;5033939;28;20424;-72
2022/08/18 11:47:19;;;;;;;4.28;2.00;;;;;;;25.99;61.61;101323.50;5034885;28;20025;-72
2022/08/18 11:49:56;;;;;;;6.35;1.98;;;;;;;25.82;61.82;101310.66;5033160;28;20032;-72
2022/08/18 11:52:27;;;;;;;3.35;1.75;;;;;;;25.85;63.57;101318.03;5034732;28;20029;-73
2022/08/18 11:55:03;;;;;;;3.95;1.90;;;;;;;25.77;63.54;101320.47;5034415;28;20025;-72
2022/08/18 11:57:30;;;;;;;4.10;1.70;;;;;;;25.81;61.89;101329.44;5034488;28;20396;-72